Time;durP1;ratioP1;P1;durP2;ratioP2;P2;SDS_P1;SDS_P2;PMS_P1;PMS_P2;Temp;Humidity;BMP_temperature;BMP_pressure;BME280_temperature;BME280_humidity;BME280_pressure;Samples;Min_cycle;Max_cycle;Signal;HPM_P1;HPM_P2
2022/02/07 00:06:03;;;;;;;15.40;3.42;;;5.30;99.90;;;;;;5032151;28;25130;-69
2022/02/07 00:08:29;;;;;;;18.02;3.33;;;5.30;99.90;;;;;;5035671;28;25092;-68
2022/02/07 00:10:54;;;;;;;23.00;3.25;;;5.40;99.90;;;;;;5036605;28;25066;-70
2022/02/07 00:13:20;;;;;;;23.70;4.43;;;5.50;99.90;;;;;;5024476;28;25132;-69
2022/02/07 00:15:45;;;;;;;22.23;5.15;;;5.50;99.90;;;;;;5036380;28;25073;-70
2022/02/07 00:18:11;;;;;;;28.08;4.68;;;5.60;99.90;;;;;;5019734;28;25060;-69
2022/02/07 00:20:37;;;;;;;20.77;3.92;;;5.60;99.90;;;;;;5021979;28;25061;-69
2022/02/07 00:23:03;;;;;;;22.55;4.18;;;5.60;99.90;;;;;;5039381;28;25140;-69
2022/02/07 00:25:29;;;;;;;24.95;3.75;;;5.60;99.90;;;;;;5034921;28;25046;-68
2022/02/07 00:27:55;;;;;;;20.30;3.95;;;5.50;99.90;;;;;;5020060;28;25065;-68
2022/02/07 00:30:22;;;;;;;12.20;3.15;;;5.30;99.90;;;;;;5031246;28;25090;-68
2022/02/07 00:32:48;;;;;;;16.48;2.78;;;4.70;99.90;;;;;;5035788;28;25104;-68
2022/02/07 00:35:16;;;;;;;15.48;2.83;;;4.50;99.90;;;;;;5051093;28;25059;-67
2022/02/07 00:37:45;;;;;;;13.93;2.80;;;4.60;99.90;;;;;;5013432;28;25064;-68
2022/02/07 00:42:50;;;;;;;17.38;3.65;;;4.60;99.90;;;;;;5023374;28;25055;-69
2022/02/07 00:45:25;;;;;;;17.42;3.08;;;4.60;99.90;;;;;;5011322;28;25139;-70
2022/02/07 00:47:51;;;;;;;16.42;3.42;;;4.70;99.90;;;;;;5012615;28;25071;-68
2022/02/07 00:50:17;;;;;;;25.15;3.80;;;4.70;99.90;;;;;;5011453;28;25068;-68
2022/02/07 00:52:42;;;;;;;16.27;3.78;;;4.70;99.90;;;;;;5030966;28;25067;-69
2022/02/07 00:55:08;;;;;;;24.10;3.60;;;4.90;99.90;;;;;;5031096;28;25144;-69
2022/02/07 00:57:34;;;;;;;21.30;4.10;;;5.10;99.90;;;;;;5013058;28;25059;-68
2022/02/07 00:59:59;;;;;;;25.65;4.47;;;5.20;99.90;;;;;;5011588;28;25052;-69
2022/02/07 01:02:25;;;;;;;35.25;4.95;;;5.20;99.90;;;;;;5021356;28;25089;-69
2022/02/07 01:04:50;;;;;;;23.42;4.60;;;5.30;99.90;;;;;;5031145;28;25062;-69
2022/02/07 01:07:16;;;;;;;27.45;4.32;;;5.30;99.90;;;;;;5033414;28;25070;-70
2022/02/07 01:09:45;;;;;;;22.55;4.68;;;5.30;99.90;;;;;;5030627;28;25048;-68
2022/02/07 01:55:30;;;;;;;15.60;3.55;;;5.80;99.80;;;;;;5028525;28;25088;-68
2022/02/07 01:57:57;;;;;;;29.00;3.45;;;5.80;99.80;;;;;;5026194;28;25066;-69
2022/02/07 02:00:23;;;;;;;20.95;3.75;;;6.00;99.10;;;;;;5033649;28;25143;-68
2022/02/07 02:02:49;;;;;;;24.00;4.30;;;6.00;99.10;;;;;;5031472;28;25063;-67
2022/02/07 02:05:15;;;;;;;16.30;4.13;;;5.90;99.30;;;;;;5033667;28;25077;-68
2022/02/07 02:07:42;;;;;;;29.15;4.78;;;5.80;99.90;;;;;;5029365;28;25083;-67
2022/02/07 02:10:10;;;;;;;28.70;4.78;;;6.00;98.60;;;;;;5048479;28;25066;-69
2022/02/07 02:12:46;;;;;;;20.88;3.78;;;5.90;99.00;;;;;;5024890;28;25057;-69
2022/02/07 02:35:16;;;;;;;20.40;4.30;;;5.80;99.80;;;;;;4957806;28;25047;-68
2022/02/07 02:37:43;;;;;;;27.92;4.68;;;5.80;99.30;;;;;;5018185;28;25141;-68
2022/02/07 02:45:35;;;;;;;17.45;2.60;;;5.80;98.30;;;;;;5032942;28;25064;-69
2022/02/07 02:48:06;;;;;;;20.27;4.53;;;5.80;98.80;;;;;;5007127;28;25105;-68
2022/02/07 02:50:35;;;;;;;22.15;4.18;;;5.80;98.50;;;;;;5010203;28;25112;-68
2022/02/07 02:53:06;;;;;;;16.00;3.20;;;5.80;98.30;;;;;;5023627;28;25075;-68
2022/02/07 02:55:33;;;;;;;18.48;4.30;;;5.70;99.00;;;;;;5017481;28;25052;-68
2022/02/07 02:57:59;;;;;;;28.70;4.07;;;5.80;98.80;;;;;;5011514;28;25087;-68
2022/02/07 03:00:27;;;;;;;27.52;5.28;;;5.80;99.20;;;;;;5029344;28;25110;-69
2022/02/07 03:02:52;;;;;;;18.73;3.33;;;5.80;99.10;;;;;;5004585;28;25073;-68
2022/02/07 03:05:18;;;;;;;18.55;3.35;;;5.80;99.20;;;;;;5009367;28;25074;-68
2022/02/07 03:07:44;;;;;;;21.73;4.07;;;5.80;99.40;;;;;;5026012;28;25144;-70
2022/02/07 03:10:11;;;;;;;25.77;3.90;;;5.70;99.90;;;;;;5027010;28;25046;-67
2022/02/07 03:13:34;;;;;;;19.48;4.20;;;5.60;99.90;;;;;;5025554;28;25064;-67
2022/02/07 03:18:09;;;;;;;23.02;3.55;;;5.80;98.80;;;;;;5028984;28;25047;-68
2022/02/07 03:20:35;;;;;;;16.10;3.70;;;5.90;98.70;;;;;;5029803;28;25058;-66
2022/02/07 03:23:00;;;;;;;25.05;4.78;;;6.00;98.00;;;;;;5021794;28;25064;-70
2022/02/07 03:25:26;;;;;;;23.77;4.03;;;6.00;98.00;;;;;;5025593;28;25069;-69
2022/02/07 03:27:51;;;;;;;24.67;4.97;;;6.00;98.20;;;;;;5011050;28;25074;-69
2022/02/07 03:30:17;;;;;;;25.65;3.75;;;6.00;98.00;;;;;;5010435;28;25077;-70
2022/02/07 03:32:42;;;;;;;19.00;3.60;;;5.90;98.10;;;;;;5023863;28;25117;-69
2022/02/07 03:35:08;;;;;;;21.67;3.38;;;6.00;97.80;;;;;;5052884;28;25113;-69
2022/02/07 03:37:34;;;;;;;24.90;4.63;;;6.00;98.00;;;;;;5037449;28;25100;-69
2022/02/07 03:40:00;;;;;;;22.30;4.03;;;6.00;98.10;;;;;;5033429;28;25063;-69
2022/02/07 03:42:25;;;;;;;17.95;3.47;;;5.90;98.10;;;;;;5032668;28;25106;-69
2022/02/07 03:44:51;;;;;;;23.83;4.35;;;6.00;97.90;;;;;;5033440;28;25077;-68
2022/02/07 03:47:16;;;;;;;24.38;4.00;;;6.00;98.10;;;;;;5032789;28;25062;-68
2022/02/07 03:49:42;;;;;;;16.63;3.97;;;6.00;98.40;;;;;;5024251;28;25085;-67
2022/02/07 03:52:10;;;;;;;24.90;3.92;;;6.00;98.30;;;;;;5014403;28;25112;-67
2022/02/07 03:54:36;;;;;;;24.80;5.05;;;5.90;98.60;;;;;;5014431;28;25061;-67
2022/02/07 03:57:02;;;;;;;25.08;4.45;;;6.00;98.50;;;;;;5037297;28;25070;-68
2022/02/07 03:59:28;;;;;;;30.27;3.85;;;6.00;98.40;;;;;;5040360;28;25073;-68
2022/02/07 04:01:54;;;;;;;25.17;4.30;;;6.10;98.20;;;;;;5046493;28;25073;-68
2022/02/07 04:04:20;;;;;;;22.10;3.42;;;6.10;97.90;;;;;;5048590;28;25078;-66
2022/02/07 04:06:45;;;;;;;23.42;3.55;;;6.00;98.40;;;;;;5042318;28;25066;-66
2022/02/07 04:09:14;;;;;;;18.23;3.92;;;6.00;98.40;;;;;;5014005;28;25062;-67
2022/02/07 04:11:49;;;;;;;23.20;3.25;;;6.00;98.60;;;;;;5040520;28;25158;-69
2022/02/07 04:14:21;;;;;;;19.67;4.15;;;6.10;98.50;;;;;;5034564;28;25100;-68
2022/02/07 04:16:46;;;;;;;16.35;3.33;;;6.10;98.20;;;;;;5033134;28;25107;-67
2022/02/07 04:19:21;;;;;;;24.42;4.68;;;6.10;98.40;;;;;;4997220;28;25132;-68
2022/02/07 04:21:49;;;;;;;19.85;4.68;;;6.10;98.60;;;;;;5028707;28;25179;-68
2022/02/07 04:24:15;;;;;;;27.42;4.63;;;6.10;98.80;;;;;;5030463;28;25063;-68
2022/02/07 04:26:41;;;;;;;20.38;4.15;;;6.10;98.90;;;;;;4996816;28;25097;-68
2022/02/07 04:29:07;;;;;;;25.60;5.28;;;6.10;99.10;;;;;;5025043;28;25064;-69
2022/02/07 04:31:32;;;;;;;23.05;5.13;;;6.20;98.80;;;;;;5029547;28;25184;-69
2022/02/07 04:33:58;;;;;;;26.45;3.97;;;6.20;98.70;;;;;;5031428;28;25095;-68
2022/02/07 04:36:23;;;;;;;31.13;5.45;;;6.30;98.70;;;;;;5031472;28;25088;-69
2022/02/07 04:38:49;;;;;;;22.55;4.63;;;6.20;98.90;;;;;;5012016;28;25132;-68
2022/02/07 04:41:15;;;;;;;22.58;4.68;;;6.20;99.20;;;;;;5027121;28;25047;-70
2022/02/07 04:43:49;;;;;;;21.27;4.28;;;6.20;99.10;;;;;;5020437;28;25176;-68
2022/02/07 04:49:10;;;;;;;24.73;4.50;;;6.20;99.20;;;;;;5025082;28;25149;-69
2022/02/07 04:52:01;;;;;;;21.48;4.00;;;6.20;99.40;;;;;;5018979;28;25059;-67
2022/02/07 04:59:42;;;;;;;27.30;5.63;;;6.30;99.00;;;;;;5032317;28;25120;-67
2022/02/07 05:04:55;;;;;;;29.52;4.60;;;6.30;99.50;;;;;;5027239;28;25062;-67
2022/02/07 05:15:34;;;;;;;32.65;5.43;;;6.30;99.70;;;;;;5026695;28;25063;-67
2022/02/07 05:17:59;;;;;;;32.65;4.22;;;6.20;99.90;;;;;;5014256;28;25054;-67
2022/02/07 05:20:25;;;;;;;30.70;5.03;;;6.20;99.90;;;;;;5031183;28;25151;-67
2022/02/07 05:22:51;;;;;;;24.63;3.80;;;6.30;99.90;;;;;;5013215;28;25077;-67
2022/02/07 05:25:16;;;;;;;28.58;5.10;;;6.30;99.90;;;;;;5037432;28;25054;-66
2022/02/07 05:27:42;;;;;;;28.45;4.60;;;6.20;99.90;;;;;;5028654;28;25176;-68
2022/02/07 05:30:08;;;;;;;28.38;4.68;;;6.20;99.90;;;;;;5029272;28;25075;-68
2022/02/07 05:32:33;;;;;;;33.80;5.35;;;6.30;99.90;;;;;;5021960;28;25076;-67
2022/02/07 05:34:59;;;;;;;25.25;5.35;;;6.20;99.90;;;;;;5030438;28;25098;-68
2022/02/07 05:37:24;;;;;;;25.83;4.32;;;6.10;99.90;;;;;;5008205;28;25106;-67
2022/02/07 05:39:55;;;;;;;26.92;4.88;;;6.10;99.90;;;;;;5004572;28;25132;-67
2022/02/07 05:42:21;;;;;;;22.38;5.63;;;6.10;99.90;;;;;;5040223;28;25145;-67
2022/02/07 05:44:47;;;;;;;37.55;6.45;;;6.00;99.90;;;;;;5045185;28;25161;-68
2022/02/07 05:47:14;;;;;;;32.78;5.65;;;6.00;99.90;;;;;;5034778;28;25054;-67
2022/02/07 05:49:40;;;;;;;25.90;5.07;;;6.00;99.90;;;;;;5015999;28;25120;-67
2022/02/07 05:52:06;;;;;;;28.55;4.53;;;6.00;99.90;;;;;;5031234;28;25076;-67
2022/02/07 05:54:31;;;;;;;29.73;4.90;;;6.00;99.90;;;;;;5024091;28;25063;-68
2022/02/07 05:56:57;;;;;;;35.15;6.13;;;6.10;99.90;;;;;;5010404;28;25071;-66
2022/02/07 05:59:22;;;;;;;26.25;5.30;;;6.10;99.90;;;;;;5026525;28;25104;-68
2022/02/07 06:01:48;;;;;;;27.55;6.38;;;6.00;99.90;;;;;;5030059;28;25063;-68
2022/02/07 06:04:13;;;;;;;40.10;5.30;;;6.00;99.90;;;;;;5035426;28;25118;-69
2022/02/07 06:06:39;;;;;;;31.35;6.80;;;6.00;99.90;;;;;;5022661;28;25146;-68
2022/02/07 06:09:07;;;;;;;19.58;4.22;;;6.10;99.90;;;;;;5013791;28;25074;-68
2022/02/07 06:11:33;;;;;;;30.67;4.57;;;6.10;99.90;;;;;;5011278;28;25080;-68
2022/02/07 06:13:58;;;;;;;31.70;5.35;;;6.10;99.90;;;;;;5022032;28;25075;-68
2022/02/07 06:16:24;;;;;;;28.00;4.82;;;6.10;99.90;;;;;;5030272;28;25080;-67
2022/02/07 06:18:50;;;;;;;37.50;5.63;;;6.10;99.90;;;;;;5032152;28;25050;-67
2022/02/07 06:21:16;;;;;;;36.00;6.43;;;6.10;99.90;;;;;;5025196;28;25068;-68
2022/02/07 06:23:42;;;;;;;30.25;5.30;;;6.10;99.90;;;;;;5037271;28;25097;-66
2022/02/07 06:26:08;;;;;;;29.73;4.20;;;6.10;99.90;;;;;;5014934;28;25096;-66
2022/02/07 06:28:33;;;;;;;35.42;5.50;;;6.10;99.90;;;;;;5008688;28;25048;-67
2022/02/07 06:30:59;;;;;;;37.33;5.47;;;6.00;99.90;;;;;;5033924;28;25097;-67
2022/02/07 06:33:25;;;;;;;34.30;5.55;;;6.10;99.90;;;;;;5040253;28;25052;-67
2022/02/07 06:35:53;;;;;;;28.67;4.20;;;6.00;99.90;;;;;;5040209;28;25114;-67
2022/02/07 06:38:19;;;;;;;24.05;4.22;;;6.00;99.90;;;;;;5041984;28;25056;-68
2022/02/07 06:40:44;;;;;;;30.00;5.30;;;6.10;99.90;;;;;;5020201;28;25267;-68
2022/02/07 06:43:10;;;;;;;33.85;5.05;;;6.00;99.90;;;;;;5029864;28;25078;-66
2022/02/07 06:45:35;;;;;;;24.15;3.97;;;6.00;99.90;;;;;;5034102;28;25167;-66
2022/02/07 06:48:01;;;;;;;29.75;4.75;;;6.00;99.90;;;;;;5032050;28;25076;-68
2022/02/07 06:50:27;;;;;;;27.65;4.97;;;6.00;99.90;;;;;;5023325;28;25061;-67
2022/02/07 06:52:52;;;;;;;35.42;5.50;;;6.00;99.90;;;;;;5029647;28;25062;-67
2022/02/07 06:55:18;;;;;;;33.65;4.22;;;6.00;99.90;;;;;;5030062;28;25088;-68
2022/02/07 06:57:43;;;;;;;27.15;5.28;;;6.00;99.90;;;;;;5033538;28;25108;-68
2022/02/07 07:00:10;;;;;;;30.40;5.07;;;6.10;99.90;;;;;;5034157;28;25051;-67
2022/02/07 07:02:38;;;;;;;34.17;4.85;;;6.00;99.90;;;;;;5033307;28;25063;-66
2022/02/07 07:05:11;;;;;;;34.53;6.50;;;6.10;99.90;;;;;;5032612;28;25078;-68
2022/02/07 07:07:37;;;;;;;32.97;6.35;;;6.10;99.90;;;;;;5007527;28;25073;-66
2022/02/07 07:10:04;;;;;;;30.88;5.70;;;6.00;99.90;;;;;;5030382;28;25081;-67
2022/02/07 07:12:30;;;;;;;25.65;4.68;;;6.10;99.90;;;;;;5029802;28;25073;-68
2022/02/07 07:15:38;;;;;;;37.28;5.15;;;6.10;99.90;;;;;;5020764;28;25096;-66
2022/02/07 07:17:48;;;;;;;30.77;6.40;;;6.10;99.90;;;;;;5028726;28;25073;-67
2022/02/07 07:20:13;;;;;;;30.23;4.97;;;6.10;99.90;;;;;;5032751;28;25057;-68
2022/02/07 07:22:40;;;;;;;35.03;5.55;;;6.10;99.90;;;;;;5030835;28;25063;-67
2022/02/07 07:25:08;;;;;;;36.88;6.22;;;6.10;99.90;;;;;;5030388;28;25066;-69
2022/02/07 07:27:44;;;;;;;31.50;5.78;;;6.10;99.90;;;;;;5035515;28;25082;-67
2022/02/07 07:30:12;;;;;;;31.13;6.32;;;6.10;99.90;;;;;;5026179;28;25148;-68
2022/02/07 07:32:37;;;;;;;38.70;6.10;;;6.10;99.90;;;;;;5031027;28;25075;-67
2022/02/07 07:35:03;;;;;;;40.33;5.72;;;6.10;99.90;;;;;;5036370;28;25073;-68
2022/02/07 07:37:29;;;;;;;44.20;6.50;;;6.10;99.90;;;;;;5041191;28;25076;-66
2022/02/07 07:39:55;;;;;;;25.10;5.30;;;6.10;99.90;;;;;;5033971;28;25061;-67
2022/02/07 07:42:21;;;;;;;41.30;6.97;;;6.10;99.90;;;;;;5033892;28;25094;-67
2022/02/07 07:44:48;;;;;;;29.85;5.28;;;6.20;99.90;;;;;;5036259;28;25055;-68
2022/02/07 07:47:19;;;;;;;32.00;6.25;;;6.20;99.90;;;;;;5040354;28;25081;-65
2022/02/07 07:50:15;;;;;;;30.27;4.95;;;6.20;99.90;;;;;;5050340;28;25069;-67
2022/02/07 07:52:46;;;;;;;27.52;5.65;;;6.20;99.90;;;;;;5052553;28;25087;-68
2022/02/07 08:03:07;;;;;;;40.65;5.60;;;6.30;99.90;;;;;;5036789;28;25081;-68
2022/02/07 08:08:08;;;;;;;27.77;4.85;;;6.40;99.90;;;;;;5036763;28;25054;-70
2022/02/07 08:10:48;;;;;;;35.00;4.85;;;6.40;99.90;;;;;;5041680;28;25074;-70
2022/02/07 08:13:17;;;;;;;37.97;7.22;;;6.40;99.90;;;;;;5034160;28;25062;-66
2022/02/07 08:15:43;;;;;;;28.63;5.05;;;6.50;99.90;;;;;;5033321;28;25070;-66
2022/02/07 08:18:09;;;;;;;29.30;5.95;;;6.50;99.90;;;;;;5027027;28;25146;-67
2022/02/07 08:20:35;;;;;;;33.90;6.35;;;6.50;99.90;;;;;;5039620;28;25058;-68
2022/02/07 08:23:04;;;;;;;30.77;5.75;;;6.50;99.90;;;;;;5044698;28;25056;-69
2022/02/07 08:25:29;;;;;;;25.63;5.35;;;6.60;99.90;;;;;;5051141;28;25131;-68
2022/02/07 08:27:55;;;;;;;20.38;5.10;;;6.60;99.90;;;;;;5041162;28;25119;-67
2022/02/07 08:30:21;;;;;;;20.45;3.88;;;6.60;99.90;;;;;;5035881;28;25082;-68
2022/02/07 08:32:46;;;;;;;30.42;4.35;;;6.70;99.90;;;;;;5037173;28;25148;-69
2022/02/07 08:35:12;;;;;;;31.55;5.35;;;6.60;99.90;;;;;;5047048;28;25078;-68
2022/02/07 08:37:37;;;;;;;29.70;5.28;;;6.60;99.90;;;;;;5055476;28;25061;-67
2022/02/07 08:40:03;;;;;;;45.40;7.03;;;6.60;99.90;;;;;;5048907;28;25072;-67
2022/02/07 08:42:29;;;;;;;34.60;5.55;;;6.50;99.90;;;;;;5042245;28;25070;-70
2022/02/07 08:44:55;;;;;;;30.95;5.75;;;6.40;99.90;;;;;;5015987;28;25068;-70
2022/02/07 08:47:22;;;;;;;33.65;4.93;;;6.50;99.90;;;;;;5045388;28;25086;-68
2022/02/07 08:49:47;;;;;;;33.25;6.00;;;6.40;99.90;;;;;;5039005;28;25088;-68
2022/02/07 08:52:14;;;;;;;27.77;4.82;;;6.30;99.90;;;;;;5054471;28;25120;-70
2022/02/07 08:54:40;;;;;;;29.67;5.18;;;6.30;99.90;;;;;;5053211;28;25125;-67
2022/02/07 09:00:57;;;;;;;32.95;5.15;;;6.40;99.90;;;;;;4983711;28;25090;-69
2022/02/07 09:04:29;;;;;;;27.08;4.90;;;6.40;99.90;;;;;;5007634;28;25074;-68
2022/02/07 09:06:06;;;;;;;27.38;4.57;;;6.30;99.90;;;;;;5021967;28;25078;-69
2022/02/07 09:11:15;;;;;;;34.10;5.57;;;6.30;99.90;;;;;;5035980;28;25061;-68
2022/02/07 09:13:45;;;;;;;30.83;5.43;;;6.20;99.90;;;;;;5053664;28;25077;-69
2022/02/07 09:16:33;;;;;;;22.75;4.18;;;6.10;99.90;;;;;;5045072;28;25052;-67
2022/02/07 09:19:00;;;;;;;35.45;5.53;;;6.20;99.90;;;;;;5043712;28;25100;-69
2022/02/07 09:21:28;;;;;;;28.25;3.92;;;6.20;99.90;;;;;;5054806;28;25100;-67
2022/02/07 09:23:54;;;;;;;37.60;4.85;;;6.20;99.90;;;;;;5031285;28;25063;-68
2022/02/07 09:26:20;;;;;;;19.83;4.10;;;6.30;99.90;;;;;;5035170;28;25059;-69
2022/02/07 09:28:46;;;;;;;22.65;4.47;;;6.50;99.90;;;;;;5031658;28;25087;-67
2022/02/07 09:31:12;;;;;;;26.17;4.20;;;6.60;99.90;;;;;;5033852;28;25077;-68
2022/02/07 09:33:40;;;;;;;31.08;4.63;;;6.50;99.90;;;;;;5048768;28;25120;-67
2022/02/07 09:36:05;;;;;;;29.65;4.80;;;6.50;99.90;;;;;;5053819;28;25086;-67
2022/02/07 09:38:32;;;;;;;24.98;4.53;;;6.60;99.90;;;;;;5055671;28;25069;-65
2022/02/07 09:40:59;;;;;;;20.17;4.90;;;6.50;99.90;;;;;;5043675;28;25066;-69
2022/02/07 09:43:30;;;;;;;24.58;4.90;;;6.60;99.90;;;;;;5005606;28;25062;-68
2022/02/07 09:46:05;;;;;;;25.58;4.38;;;6.60;99.90;;;;;;5040924;28;25106;-68
2022/02/07 09:48:38;;;;;;;35.83;4.40;;;6.60;99.90;;;;;;5040523;28;25071;-69
2022/02/07 09:51:09;;;;;;;26.65;4.60;;;6.60;99.90;;;;;;5033181;28;25055;-69
2022/02/07 09:53:35;;;;;;;31.70;4.65;;;6.80;99.90;;;;;;5019396;28;25086;-70
2022/02/07 09:56:03;;;;;;;23.23;4.97;;;7.00;99.90;;;;;;5033175;28;25070;-68
2022/02/07 09:58:32;;;;;;;26.17;5.15;;;6.90;99.90;;;;;;5033914;28;25048;-68
2022/02/07 10:01:00;;;;;;;15.73;3.38;;;7.10;99.90;;;;;;5019312;28;25088;-69
2022/02/07 10:03:34;;;;;;;32.00;4.72;;;7.10;99.90;;;;;;5034807;28;25124;-68
2022/02/07 10:06:26;;;;;;;31.27;5.70;;;7.30;99.90;;;;;;5032503;28;25060;-67
2022/02/07 10:16:50;;;;;;;22.02;4.10;;;7.10;99.90;;;;;;5038269;28;25059;-68
2022/02/07 10:39:13;;;;;;;33.60;4.35;;;6.90;99.90;;;;;;5029603;28;25058;-69
2022/02/07 10:47:08;;;;;;;26.13;4.45;;;7.00;99.90;;;;;;5034628;28;25081;-68
2022/02/07 10:49:35;;;;;;;24.55;3.80;;;6.80;99.90;;;;;;5033050;28;25075;-68
2022/02/07 10:52:01;;;;;;;26.23;5.35;;;6.80;99.90;;;;;;5031291;28;25087;-68
2022/02/07 10:54:28;;;;;;;19.55;3.10;;;6.70;99.90;;;;;;5048082;28;25082;-69
2022/02/07 10:56:54;;;;;;;18.02;3.78;;;6.70;99.90;;;;;;5050270;28;25067;-67
2022/02/07 10:59:21;;;;;;;22.50;3.22;;;6.70;99.90;;;;;;5043758;28;25137;-67
2022/02/07 11:04:22;;;;;;;19.35;3.35;;;6.70;99.90;;;;;;5038040;28;25099;-67
2022/02/07 11:06:51;;;;;;;;;;;6.70;99.90;;;;;;5051108;28;25052;-68
2022/02/07 11:09:38;;;;;;;16.50;3.80;;;6.70;99.90;;;;;;5032832;28;24087;-68
2022/02/07 11:27:49;;;;;;;20.08;3.15;;;6.80;99.90;;;;;;5051771;28;25068;-67
2022/02/07 11:30:16;;;;;;;15.05;3.08;;;6.70;99.90;;;;;;5053154;28;25073;-67
2022/02/07 11:32:43;;;;;;;27.90;4.75;;;6.70;99.90;;;;;;5037349;28;25120;-68
2022/02/07 11:35:17;;;;;;;27.48;4.05;;;6.80;99.90;;;;;;5050771;28;25052;-68
2022/02/07 11:37:49;;;;;;;23.35;4.45;;;7.00;99.90;;;;;;5040122;28;25130;-67
2022/02/07 11:40:29;;;;;;;19.98;3.35;;;7.20;99.90;;;;;;5031264;28;25051;-67
2022/02/07 11:43:22;;;;;;;19.67;3.80;;;7.60;99.90;;;;;;5025841;28;25070;-67
2022/02/07 11:45:57;;;;;;;17.98;4.07;;;7.90;99.90;;;;;;5031289;28;25057;-69
2022/02/07 11:48:26;;;;;;;18.20;2.80;;;8.40;99.90;;;;;;5036898;28;25102;-68
2022/02/07 11:51:04;;;;;;;25.35;3.50;;;8.80;99.90;;;;;;5033307;28;25070;-68
2022/02/07 11:53:39;;;;;;;19.02;3.78;;;9.20;98.90;;;;;;5032704;28;25073;-70
2022/02/07 11:56:14;;;;;;;16.58;3.20;;;9.30;98.60;;;;;;5042873;28;25125;-69
2022/02/07 12:02:06;;;;;;;24.85;3.90;;;9.40;98.20;;;;;;5034057;28;25056;-69
2022/02/07 12:04:40;;;;;;;24.13;3.60;;;9.00;98.10;;;;;;5033118;28;25050;-68
2022/02/07 12:07:11;;;;;;;14.10;3.70;;;9.20;98.10;;;;;;5033861;28;25067;-70
2022/02/07 12:10:03;;;;;;;26.50;4.63;;;9.20;97.10;;;;;;5038940;28;25072;-69
2022/02/07 12:12:39;;;;;;;18.67;3.83;;;8.40;98.80;;;;;;5037841;28;25069;-69
2022/02/07 12:15:12;;;;;;;13.77;2.80;;;8.00;99.60;;;;;;5036467;28;25088;-69
2022/02/07 12:17:42;;;;;;;23.25;4.35;;;8.40;99.40;;;;;;5035680;28;25070;-70
2022/02/07 12:20:11;;;;;;;18.83;2.80;;;8.50;98.90;;;;;;5034833;28;25094;-69
2022/02/07 12:22:54;;;;;;;19.55;3.10;;;8.80;99.10;;;;;;5034094;28;25049;-68
2022/02/07 12:25:36;;;;;;;;;;;9.20;98.00;;;;;;5032573;28;25109;-69
2022/02/07 12:28:04;;;;;;;11.77;3.42;;;9.50;97.70;;;;;;5032588;28;25148;-69
2022/02/07 12:30:32;;;;;;;23.83;2.85;;;9.60;96.70;;;;;;5034083;28;25097;-70
2022/02/07 12:33:05;;;;;;;13.52;2.42;;;9.50;97.00;;;;;;5033149;28;25103;-69
2022/02/07 12:35:31;;;;;;;11.25;2.53;;;8.80;97.60;;;;;;5033778;28;25126;-69
2022/02/07 12:37:57;;;;;;;31.98;4.88;;;9.10;97.30;;;;;;5032998;28;25078;-69
2022/02/07 12:40:23;;;;;;;12.63;3.17;;;8.60;97.40;;;;;;5032220;28;25062;-69
2022/02/07 12:42:52;;;;;;;15.05;2.90;;;8.60;98.20;;;;;;5032359;28;25067;-68
2022/02/07 12:45:25;;;;;;;18.50;3.03;;;8.90;98.00;;;;;;5035733;28;25073;-69
2022/02/07 12:47:51;;;;;;;;;;;9.10;96.90;;;;;;5033482;28;25145;-69
2022/02/07 12:50:18;;;;;;;17.48;2.88;;;9.30;96.90;;;;;;5015753;28;25057;-70
2022/02/07 12:52:44;;;;;;;16.77;3.10;;;9.30;96.80;;;;;;5033740;28;25075;-70
2022/02/07 12:55:14;;;;;;;17.17;4.03;;;9.00;96.90;;;;;;5034542;28;25097;-67
2022/02/07 12:57:41;;;;;;;12.75;2.60;;;8.30;97.10;;;;;;5017102;28;25056;-67
2022/02/07 13:00:09;;;;;;;13.90;2.97;;;8.10;98.20;;;;;;5047179;28;25141;-67
2022/02/07 13:02:35;;;;;;;18.13;3.22;;;8.80;97.70;;;;;;5052566;28;25083;-67
2022/02/07 13:05:01;;;;;;;14.95;3.05;;;9.10;96.40;;;;;;5052670;28;25062;-68
2022/02/07 13:07:31;;;;;;;16.90;3.30;;;9.00;96.80;;;;;;5052383;28;25072;-67
2022/02/07 13:09:57;;;;;;;14.70;3.30;;;9.10;96.40;;;;;;5042350;28;25058;-67
2022/02/07 13:12:39;;;;;;;15.65;3.08;;;9.10;96.40;;;;;;5012527;28;25074;-67
2022/02/07 13:15:13;;;;;;;20.75;3.35;;;8.90;96.80;;;;;;5045247;28;25075;-68
2022/02/07 13:17:39;;;;;;;12.60;2.78;;;8.60;97.00;;;;;;5018076;28;25083;-67
2022/02/07 13:20:07;;;;;;;16.88;4.13;;;8.30;98.10;;;;;;5052986;28;25079;-67
2022/02/07 13:22:32;;;;;;;22.15;3.30;;;8.60;98.60;;;;;;5053305;28;25065;-68
2022/02/07 13:24:58;;;;;;;16.15;3.20;;;8.50;97.70;;;;;;5021429;28;25060;-67
2022/02/07 13:27:24;;;;;;;13.25;2.35;;;8.50;97.90;;;;;;5033677;28;25090;-67
2022/02/07 13:29:56;;;;;;;12.50;3.00;;;8.90;97.10;;;;;;5038042;28;25054;-67
2022/02/07 13:32:26;;;;;;;17.17;2.40;;;8.20;96.90;;;;;;5036586;28;25521;-67
2022/02/07 13:35:22;;;;;;;17.42;2.60;;;8.10;97.60;;;;;;5038281;28;25062;-67
2022/02/07 13:37:48;;;;;;;15.55;2.60;;;7.90;98.10;;;;;;5052711;28;25116;-67
2022/02/07 13:40:18;;;;;;;11.63;2.53;;;7.90;98.10;;;;;;5054825;28;25067;-68
2022/02/07 13:42:51;;;;;;;16.83;3.58;;;7.70;98.20;;;;;;5044502;28;25157;-66
2022/02/07 13:45:19;;;;;;;14.90;2.85;;;7.60;98.60;;;;;;5040476;28;25056;-67
2022/02/07 13:47:51;;;;;;;18.08;2.97;;;7.70;99.10;;;;;;5030881;28;25064;-66
2022/02/07 13:50:19;;;;;;;14.30;3.33;;;7.70;99.10;;;;;;5013358;28;25068;-67
2022/02/07 13:52:47;;;;;;;16.75;3.30;;;7.70;99.50;;;;;;5013696;28;25074;-67
2022/02/07 13:55:20;;;;;;;20.45;3.70;;;7.70;99.40;;;;;;5031134;28;25123;-68
2022/02/07 13:57:50;;;;;;;25.77;3.58;;;7.70;99.90;;;;;;5030779;28;25051;-67
2022/02/07 14:00:16;;;;;;;14.80;2.60;;;7.70;99.90;;;;;;5030574;28;25120;-67
2022/02/07 14:02:43;;;;;;;16.98;2.17;;;7.70;99.90;;;;;;5031073;28;25139;-68
2022/02/07 14:05:09;;;;;;;22.30;3.40;;;7.80;99.90;;;;;;5030368;28;25056;-68
2022/02/07 14:07:52;;;;;;;17.42;2.88;;;7.90;99.90;;;;;;5030989;28;25065;-67
2022/02/07 14:10:20;;;;;;;13.75;2.47;;;7.90;99.60;;;;;;5031123;28;25066;-67
2022/02/07 14:12:46;;;;;;;10.82;2.50;;;7.90;99.20;;;;;;5035121;28;25066;-68
2022/02/07 14:15:12;;;;;;;16.45;2.60;;;7.70;99.60;;;;;;5034112;28;25086;-68
2022/02/07 14:17:43;;;;;;;19.73;3.50;;;7.90;99.90;;;;;;5032286;28;25122;-66
2022/02/07 14:20:11;;;;;;;19.08;3.10;;;8.00;99.80;;;;;;5032730;28;25101;-68
2022/02/07 14:22:37;;;;;;;13.05;2.97;;;8.00;99.40;;;;;;5032754;28;25116;-69
2022/02/07 14:25:03;;;;;;;13.77;2.63;;;8.10;99.80;;;;;;5031871;28;25137;-69
2022/02/07 14:27:32;;;;;;;19.30;2.53;;;8.10;99.40;;;;;;5031575;28;25073;-68
2022/02/07 14:29:58;;;;;;;12.30;3.03;;;7.80;99.90;;;;;;5030992;28;25117;-68
2022/02/07 14:32:24;;;;;;;16.73;2.22;;;7.80;99.90;;;;;;5031270;28;25094;-69
2022/02/07 14:34:50;;;;;;;16.30;2.53;;;7.80;99.90;;;;;;5030448;28;25055;-68
2022/02/07 14:37:15;;;;;;;9.82;2.28;;;7.70;99.90;;;;;;5012795;28;25073;-68
2022/02/07 14:39:41;;;;;;;17.13;3.03;;;7.60;99.90;;;;;;5031132;28;25073;-67
2022/02/07 14:42:08;;;;;;;12.50;2.15;;;7.60;99.90;;;;;;5031678;28;25124;-67
2022/02/07 14:44:46;;;;;;;14.27;2.00;;;7.60;99.70;;;;;;5019516;28;25064;-67
2022/02/07 14:47:36;;;;;;;13.23;2.47;;;7.60;99.40;;;;;;5032476;28;25131;-67
2022/02/07 14:50:01;;;;;;;18.45;2.83;;;7.70;99.40;;;;;;5030807;28;25079;-67
2022/02/07 14:52:27;;;;;;;20.52;3.33;;;7.60;99.30;;;;;;5041301;28;25071;-68
2022/02/07 14:54:52;;;;;;;14.43;2.85;;;7.70;99.30;;;;;;5038932;28;25119;-67
2022/02/07 14:57:18;;;;;;;15.45;2.53;;;7.60;99.20;;;;;;5048920;28;25060;-69
2022/02/07 14:59:43;;;;;;;15.73;2.30;;;7.50;98.90;;;;;;5047866;28;25060;-70
2022/02/07 15:02:09;;;;;;;14.38;2.53;;;7.50;98.70;;;;;;5059687;28;25099;-68
2022/02/07 15:04:34;;;;;;;16.33;2.35;;;7.40;98.60;;;;;;5064233;28;25066;-69
2022/02/07 15:07:00;;;;;;;12.35;1.88;;;7.40;99.00;;;;;;5048219;28;25084;-66
2022/02/07 15:09:25;;;;;;;14.57;2.45;;;7.30;99.10;;;;;;5065741;28;25093;-67
2022/02/07 15:11:52;;;;;;;10.35;2.00;;;7.40;99.40;;;;;;5060366;28;25055;-68
2022/02/07 15:14:18;;;;;;;15.90;2.75;;;7.30;99.20;;;;;;5061094;28;25080;-69
2022/02/07 15:16:43;;;;;;;15.77;2.03;;;7.20;99.70;;;;;;5058805;28;25070;-68
2022/02/07 15:19:10;;;;;;;11.95;2.78;;;7.20;99.90;;;;;;5057440;28;25175;-68
2022/02/07 15:21:35;;;;;;;15.70;2.45;;;7.20;99.90;;;;;;5039914;28;25120;-68
2022/02/07 15:24:01;;;;;;;10.65;2.08;;;7.20;99.90;;;;;;5037085;28;25085;-67
2022/02/07 15:26:26;;;;;;;11.30;2.30;;;7.20;99.90;;;;;;5021853;28;25070;-68
2022/02/07 15:28:52;;;;;;;15.00;2.00;;;7.20;99.60;;;;;;5045019;28;25075;-68
2022/02/07 15:31:20;;;;;;;13.55;2.42;;;7.20;99.80;;;;;;5042393;28;25113;-66
2022/02/07 15:33:46;;;;;;;13.48;2.10;;;7.10;99.10;;;;;;5045249;28;25063;-66
2022/02/07 15:36:12;;;;;;;15.98;2.17;;;7.00;98.90;;;;;;5043990;28;25149;-67
2022/02/07 15:38:39;;;;;;;15.38;2.25;;;7.00;98.60;;;;;;5042915;28;25061;-66
2022/02/07 15:41:05;;;;;;;13.35;2.30;;;6.90;98.80;;;;;;5042730;28;25076;-69
2022/02/07 15:43:31;;;;;;;9.88;2.10;;;6.90;98.90;;;;;;5057328;28;25045;-68